Time;durP1;ratioP1;P1;durP2;ratioP2;P2;SDS_P1;SDS_P2;PMS_P1;PMS_P2;Temp;Humidity;BMP_temperature;BMP_pressure;BME280_temperature;BME280_humidity;BME280_pressure;Samples;Min_cycle;Max_cycle;Signal;HPM_P1;HPM_P2
2022/09/26 00:01:24;;;;;;;;;;;;;;;12.68;61.84;100633.41;5047970;28;19923;-76
2022/09/26 00:03:51;;;;;;;;;;;;;;;12.69;61.37;100629.91;5050248;28;19920;-76
2022/09/26 00:06:17;;;;;;;;;;;;;;;12.60;61.81;100620.63;5030219;28;19921;-76
2022/09/26 00:08:43;;;;;;;;;;;;;;;12.76;61.15;100619.22;5048820;28;19913;-75
2022/09/26 00:11:10;;;;;;;;;;;;;;;12.70;62.14;100616.81;5049490;28;19992;-76
2022/09/26 00:13:36;;;;;;;;;;;;;;;12.64;61.97;100614.41;5045546;28;19921;-76
2022/09/26 00:16:01;;;;;;;;;;;;;;;12.74;61.57;100613.22;5038070;28;19921;-76
2022/09/26 00:18:26;;;;;;;;;;;;;;;12.78;61.52;100611.38;5029086;28;20040;-76
2022/09/26 00:20:52;;;;;;;;;;;;;;;12.81;61.08;100608.66;5036057;28;20488;-76
2022/09/26 00:23:17;;;;;;;;;;;;;;;12.61;61.91;100617.97;5049967;28;19924;-76
2022/09/26 00:25:50;;;;;;;;;;;;;;;12.79;61.64;100603.47;5056785;28;19960;-76
2022/09/26 00:28:16;;;;;;;;;;;;;;;12.78;61.22;100593.94;5057057;28;20427;-77
2022/09/26 00:30:43;;;;;;;;;;;;;;;12.91;60.94;100586.59;5050466;28;19916;-73
2022/09/26 00:33:09;;;;;;;;;;;;;;;12.92;61.15;100594.38;5048432;28;19927;-73
2022/09/26 00:35:34;;;;;;;;;;;;;;;12.95;60.95;100585.59;5048006;28;20449;-73
2022/09/26 00:37:59;;;;;;;;;;;;;;;12.79;61.28;100590.44;5034399;28;19959;-73
2022/09/26 00:40:26;;;;;;;;;;;;;;;12.77;61.05;100591.41;5047608;28;19928;-73
2022/09/26 00:42:54;;;;;;;;;;;;;;;12.78;62.15;100593.13;5047321;28;19971;-73
2022/09/26 00:45:21;;;;;;;;;;;;;;;12.85;62.20;100590.25;5048660;28;20305;-73
2022/09/26 00:47:51;;;;;;;;;;;;;;;12.84;62.09;100593.75;5047692;28;19920;-73
2022/09/26 00:50:25;;;;;;;;;;;;;;;12.77;62.31;100583.59;5044535;28;19917;-73
2022/09/26 00:52:55;;;;;;;;;;;;;;;12.77;62.45;100579.22;5045949;28;20415;-73
2022/09/26 00:55:22;;;;;;;;;;;;;;;12.74;62.71;100574.13;5044286;28;19924;-73
2022/09/26 00:57:51;;;;;;;;;;;;;;;12.70;62.43;100569.91;5054351;28;19942;-73
2022/09/26 01:00:16;;;;;;;;;;;;;;;12.74;62.21;100561.09;5059688;28;19928;-73
2022/09/26 01:02:42;;;;;;;;;;;;;;;12.73;62.62;100561.13;5048167;28;19921;-73
2022/09/26 01:05:09;;;;;;;;;;;;;;;12.68;62.99;100555.22;5050335;28;19912;-73
2022/09/26 01:07:35;;;;;;;;;;;;;;;12.71;62.41;100552.50;5050527;28;19920;-73
2022/09/26 01:10:01;;;;;;;;;;;;;;;12.63;62.89;100551.00;5048384;28;19927;-73
2022/09/26 01:12:27;;;;;;;;;;;;;;;12.72;62.96;100554.22;5040370;28;19948;-73
2022/09/26 01:14:53;;;;;;;;;;;;;;;12.68;62.62;100543.03;5028242;28;20381;-73
2022/09/26 01:17:19;;;;;;;;;;;;;;;12.69;62.97;100539.50;5035133;28;19924;-73
2022/09/26 01:20:16;;;;;;;;;;;;;;;12.68;63.32;100542.19;5034936;28;19927;-73
2022/09/26 01:23:12;;;;;;;;;;;;;;;12.63;62.63;100524.13;4992016;28;19921;-73
2022/09/26 01:25:55;;;;;;;;;;;;;;;12.76;63.35;100525.38;4991457;28;19992;-73
2022/09/26 01:28:24;;;;;;;;;;;;;;;12.82;62.55;100521.72;5023497;28;19928;-73
2022/09/26 01:30:49;;;;;;;;;;;;;;;12.85;62.54;100505.97;5029748;28;20023;-73
2022/09/26 01:33:26;;;;;;;;;;;;;;;12.75;61.99;100512.44;5026374;28;20035;-73
2022/09/26 01:35:58;;;;;;;;;;;;;;;12.81;61.91;100502.63;5030031;28;20374;-73
2022/09/26 01:38:34;;;;;;;;;;;;;;;12.75;61.93;100512.44;5013321;28;19920;-73
2022/09/26 01:41:02;;;;;;;;;;;;;;;12.79;61.65;100516.59;5031221;28;19932;-73
2022/09/26 01:43:34;;;;;;;;;;;;;;;12.85;61.52;100519.00;5030151;28;19976;-73
2022/09/26 01:46:03;;;;;;;;;;;;;;;12.80;61.72;100526.16;5054251;28;19928;-73
2022/09/26 01:48:38;;;;;;;;;;;;;;;12.87;61.09;100517.22;5032649;28;19944;-73
2022/09/26 01:51:08;;;;;;;;;;;;;;;12.76;61.37;100517.56;5030640;28;19976;-73
2022/09/26 01:53:33;;;;;;;;;;;;;;;12.85;61.07;100512.03;5028696;28;19939;-73
2022/09/26 01:56:02;;;;;;;;;;;;;;;12.78;60.80;100514.94;5033308;28;20457;-76
2022/09/26 01:58:30;;;;;;;;;;;;;;;12.78;61.30;100502.72;5034260;28;19924;-73
2022/09/26 02:00:58;;;;;;;;;;;;;;;12.89;60.93;100499.75;5013429;28;19918;-73
2022/09/26 02:03:26;;;;;;;;;;;;;;;12.79;61.49;100500.97;5031699;28;19928;-73
2022/09/26 02:06:09;;;;;;;;;;;;;;;12.82;60.81;100496.50;5034930;28;19971;-73
2022/09/26 02:08:39;;;;;;;;;;;;;;;12.80;61.03;100489.66;5030020;28;20440;-73
2022/09/26 02:11:09;;;;;;;;;;;;;;;12.87;61.42;100486.75;5028890;28;20016;-73
2022/09/26 02:13:38;;;;;;;;;;;;;;;12.88;61.95;100483.25;5029574;28;19921;-73
2022/09/26 02:16:13;;;;;;;;;;;;;;;12.91;61.45;100475.34;5043151;28;19924;-73
2022/09/26 02:18:51;;;;;;;;;;;;;;;12.93;62.02;100468.31;5054594;28;19925;-73
2022/09/26 02:21:19;;;;;;;;;;;;;;;12.90;61.79;100464.97;5027233;28;20007;-73
2022/09/26 02:23:46;;;;;;;;;;;;;;;12.88;61.13;100466.78;5051078;28;19925;-73
2022/09/26 02:26:11;;;;;;;;;;;;;;;12.81;61.81;100453.09;5052725;28;20277;-73
2022/09/26 02:28:36;;;;;;;;;;;;;;;12.79;61.63;100456.66;5055148;28;19921;-73
2022/09/26 02:31:03;;;;;;;;;;;;;;;12.88;61.04;100453.72;5041858;28;19928;-73
2022/09/26 02:33:29;;;;;;;;;;;;;;;12.82;61.39;100449.59;5025907;28;19925;-73
2022/09/26 02:35:54;;;;;;;;;;;;;;;12.85;61.55;100441.66;5028476;28;20449;-73
2022/09/26 02:38:21;;;;;;;;;;;;;;;12.90;61.11;100444.13;5030522;28;20298;-72
2022/09/26 02:40:55;;;;;;;;;;;;;;;12.94;61.11;100438.72;5026661;28;20031;-73
2022/09/26 02:43:29;;;;;;;;;;;;;;;12.94;61.10;100438.72;5029166;28;20953;-73
2022/09/26 02:46:15;;;;;;;;;;;;;;;12.89;61.07;100434.59;5035063;28;20082;-73
2022/09/26 02:49:03;;;;;;;;;;;;;;;12.87;61.81;100429.41;5025887;28;20409;-73
2022/09/26 02:51:28;;;;;;;;;;;;;;;12.93;61.31;100425.72;5026530;28;19968;-73
2022/09/26 02:54:00;;;;;;;;;;;;;;;12.90;61.38;100425.88;5028165;28;19928;-73
2022/09/26 02:56:39;;;;;;;;;;;;;;;12.76;61.83;100413.31;5021223;28;19917;-73
2022/09/26 02:59:14;;;;;;;;;;;;;;;12.87;61.81;100413.78;5026224;28;19979;-73
2022/09/26 03:01:54;;;;;;;;;;;;;;;12.81;62.20;100407.97;5033429;28;19929;-73
2022/09/26 03:04:31;;;;;;;;;;;;;;;12.80;62.51;100409.72;5025740;28;20016;-73
2022/09/26 03:07:02;;;;;;;;;;;;;;;12.80;63.42;100407.09;5032329;28;19975;-73
2022/09/26 03:09:29;;;;;;;;;;;;;;;12.86;62.99;100399.06;5027229;28;19921;-73
2022/09/26 03:11:58;;;;;;;;;;;;;;;12.81;63.70;100390.53;5029618;28;19921;-73
2022/09/26 03:14:23;;;;;;;;;;;;;;;12.86;62.81;100386.03;5030997;28;20012;-73
2022/09/26 03:16:50;;;;;;;;;;;;;;;12.92;63.17;100382.34;5029031;28;20012;-73
2022/09/26 03:19:18;;;;;;;;;;;;;;;12.95;62.65;100374.41;5027485;28;19921;-73
2022/09/26 03:21:44;;;;;;;;;;;;;;;12.97;62.12;100373.44;5035310;28;19921;-73
2022/09/26 03:24:10;;;;;;;;;;;;;;;12.94;62.29;100372.69;5030625;28;19923;-74
2022/09/26 03:26:35;;;;;;;;;;;;;;;12.89;62.56;100365.06;5037099;28;19963;-74
2022/09/26 03:29:01;;;;;;;;;;;;;;;13.03;61.83;100361.94;5030269;28;20377;-74
2022/09/26 03:31:27;;;;;;;;;;;;;;;13.05;61.06;100354.88;5028482;28;19921;-74
2022/09/26 03:33:52;;;;;;;;;;;;;;;12.98;61.78;100356.03;5025130;28;20398;-74
2022/09/26 03:36:20;;;;;;;;;;;;;;;13.04;61.17;100355.81;5027116;28;19928;-74
2022/09/26 03:38:45;;;;;;;;;;;;;;;13.05;60.97;100347.06;5031540;28;19917;-74
2022/09/26 03:41:10;;;;;;;;;;;;;;;13.00;61.77;100344.66;5052441;28;19932;-74
2022/09/26 03:43:36;;;;;;;;;;;;;;;12.96;61.84;100336.97;5045908;28;20406;-74
2022/09/26 03:46:06;;;;;;;;;;;;;;;13.00;61.59;100331.59;5052154;28;19928;-74
2022/09/26 03:48:32;;;;;;;;;;;;;;;12.91;61.60;100329.34;5047157;28;19921;-74
2022/09/26 03:51:15;;;;;;;;;;;;;;;12.94;61.57;100317.94;5048607;28;19981;-74
2022/09/26 03:53:42;;;;;;;;;;;;;;;12.87;61.67;100314.72;5042059;28;20008;-74
2022/09/26 03:56:09;;;;;;;;;;;;;;;12.94;61.88;100316.19;5034823;28;19920;-74
2022/09/26 03:58:35;;;;;;;;;;;;;;;12.93;61.38;100305.81;5047462;28;19935;-74
2022/09/26 04:01:07;;;;;;;;;;;;;;;12.84;62.81;100308.78;5048286;28;19921;-74
2022/09/26 04:03:33;;;;;;;;;;;;;;;12.86;62.30;100296.53;5042181;28;19921;-74
2022/09/26 04:05:59;;;;;;;;;;;;;;;12.82;62.91;100298.41;5053679;28;19921;-74
2022/09/26 04:08:24;;;;;;;;;;;;;;;12.77;62.12;100292.53;5045929;28;19923;-74
2022/09/26 04:10:50;;;;;;;;;;;;;;;12.80;62.29;100296.78;5048913;28;19929;-74
2022/09/26 04:13:15;;;;;;;;;;;;;;;12.89;62.12;100293.81;5047882;28;19975;-74
2022/09/26 04:15:40;;;;;;;;;;;;;;;12.81;62.38;100288.06;5049476;28;20290;-74
2022/09/26 04:18:05;;;;;;;;;;;;;;;12.80;62.83;100284.59;5051894;28;19921;-74
2022/09/26 04:20:31;;;;;;;;;;;;;;;12.85;62.11;100274.84;5047951;28;19967;-74
2022/09/26 04:22:56;;;;;;;;;;;;;;;12.77;62.12;100273.44;5048486;28;19917;-74
2022/09/26 04:25:21;;;;;;;;;;;;;;;12.84;62.55;100264.47;5047541;28;19927;-74
2022/09/26 04:27:47;;;;;;;;;;;;;;;12.85;61.47;100259.19;5038670;28;19955;-74
2022/09/26 04:30:12;;;;;;;;;;;;;;;12.82;61.21;100251.50;5010370;28;19922;-73
2022/09/26 04:32:37;;;;;;;;;;;;;;;12.70;62.12;100245.88;5025659;28;19921;-74
2022/09/26 04:35:03;;;;;;;;;;;;;;;12.74;61.49;100244.88;5026571;28;19967;-74
2022/09/26 04:37:28;;;;;;;;;;;;;;;12.68;61.90;100247.72;5028005;28;20255;-74
2022/09/26 04:39:54;;;;;;;;;;;;;;;12.68;62.08;100240.75;5028714;28;19956;-74
2022/09/26 04:42:20;;;;;;;;;;;;;;;12.62;62.83;100233.16;5026393;28;19975;-74
2022/09/26 04:44:47;;;;;;;;;;;;;;;12.65;62.52;100220.88;5029384;28;19927;-74
2022/09/26 04:47:12;;;;;;;;;;;;;;;12.65;62.70;100226.09;5034057;28;19917;-74
2022/09/26 04:49:38;;;;;;;;;;;;;;;12.68;62.44;100224.25;5030140;28;19970;-76
2022/09/26 04:52:03;;;;;;;;;;;;;;;12.65;62.61;100220.00;5028827;28;19926;-73
2022/09/26 04:54:29;;;;;;;;;;;;;;;12.67;62.26;100215.59;5021440;28;19948;-73
2022/09/26 04:56:54;;;;;;;;;;;;;;;12.65;63.37;100214.81;5028241;28;19917;-73
2022/09/26 04:59:19;;;;;;;;;;;;;;;12.58;62.80;100219.41;5028588;28;19925;-73
2022/09/26 05:01:45;;;;;;;;;;;;;;;12.45;62.90;100218.09;5028180;28;20271;-73
2022/09/26 05:04:11;;;;;;;;;;;;;;;12.50;62.76;100215.34;5026997;28;19921;-73
2022/09/26 05:06:38;;;;;;;;;;;;;;;12.46;62.97;100211.16;5035661;28;19995;-73
2022/09/26 05:09:04;;;;;;;;;;;;;;;12.48;63.20;100206.75;5031600;28;19921;-73
2022/09/26 05:11:31;;;;;;;;;;;;;;;12.41;62.91;100208.72;5032489;28;19975;-73
2022/09/26 05:13:57;;;;;;;;;;;;;;;12.31;63.98;100206.50;5016555;28;19929;-73
2022/09/26 05:16:27;;;;;;;;;;;;;;;12.27;63.44;100202.34;5029921;28;19944;-73
2022/09/26 05:18:52;;;;;;;;;;;;;;;12.24;63.29;100199.84;5023393;28;19978;-73
2022/09/26 05:21:18;;;;;;;;;;;;;;;12.37;63.03;100196.72;5031217;28;19921;-73
2022/09/26 05:26:46;;;;;;;;;;;;;;;12.50;62.78;100197.97;5034147;28;20076;-73
2022/09/26 05:29:12;;;;;;;;;;;;;;;12.53;62.90;100184.84;5049846;28;19921;-73
2022/09/26 05:31:38;;;;;;;;;;;;;;;12.46;62.04;100185.94;5028294;28;19936;-73
2022/09/26 05:34:03;;;;;;;;;;;;;;;12.49;62.32;100187.59;5027213;28;19987;-73
2022/09/26 05:36:29;;;;;;;;;;;;;;;12.48;62.25;100184.13;5028396;28;19967;-73
2022/09/26 05:38:54;;;;;;;;;;;;;;;12.53;62.08;100181.41;5032960;28;20016;-73
2022/09/26 05:41:20;;;;;;;;;;;;;;;12.53;62.52;100174.44;5030600;28;19929;-73
2022/09/26 05:43:46;;;;;;;;;;;;;;;12.60;62.26;100175.88;5026473;28;19921;-74
2022/09/26 05:46:11;;;;;;;;;;;;;;;12.54;62.06;100180.50;5032500;28;20362;-73
2022/09/26 05:48:38;;;;;;;;;;;;;;;12.51;62.77;100181.41;5037150;28;20274;-74
2022/09/26 05:51:04;;;;;;;;;;;;;;;12.58;62.57;100171.66;5053926;28;19924;-73
2022/09/26 05:53:33;;;;;;;;;;;;;;;12.56;62.82;100169.09;5054344;28;19932;-73
2022/09/26 05:55:58;;;;;;;;;;;;;;;12.64;62.85;100166.19;5049112;28;19929;-73
2022/09/26 05:58:26;;;;;;;;;;;;;;;12.54;62.44;100167.47;5057232;28;19973;-73
2022/09/26 06:00:52;;;;;;;;;;;;;;;12.56;62.56;100160.44;5022677;28;19921;-73
2022/09/26 06:03:17;;;;;;;;;;;;;;;12.63;61.80;100165.34;5040860;28;19967;-73
2022/09/26 06:05:42;;;;;;;;;;;;;;;12.58;62.70;100163.81;5051177;28;19943;-74
2022/09/26 06:08:09;;;;;;;;;;;;;;;12.47;62.55;100151.19;5010054;28;19928;-73
2022/09/26 06:10:35;;;;;;;;;;;;;;;12.62;62.15;100150.63;5030690;28;19952;-74
2022/09/26 06:13:01;;;;;;;;;;;;;;;12.73;61.81;100147.59;5033897;28;19964;-73
2022/09/26 06:15:26;;;;;;;;;;;;;;;12.49;61.75;100151.13;5032272;28;19929;-74
2022/09/26 06:17:59;;;;;;;;;;;;;;;12.62;61.58;100140.22;5023133;28;19922;-74
2022/09/26 06:20:25;;;;;;;;;;;;;;;12.61;62.13;100138.50;5028597;28;19921;-76
2022/09/26 06:22:51;;;;;;;;;;;;;;;12.69;61.01;100140.78;5027161;28;19979;-76
2022/09/26 06:25:16;;;;;;;;;;;;;;;12.67;61.40;100132.19;5044737;28;19928;-76
2022/09/26 06:27:42;;;;;;;;;;;;;;;12.69;61.55;100130.38;5034022;28;19921;-76
2022/09/26 06:30:09;;;;;;;;;;;;;;;12.73;61.26;100124.13;5045395;28;19921;-76
2022/09/26 06:32:35;;;;;;;;;;;;;;;12.76;61.72;100120.56;5035532;28;19921;-75
2022/09/26 06:35:02;;;;;;;;;;;;;;;12.84;61.46;100113.31;5034042;28;19929;-76
2022/09/26 06:37:27;;;;;;;;;;;;;;;12.87;60.67;100103.56;5029380;28;19932;-76
2022/09/26 06:39:53;;;;;;;;;;;;;;;12.91;60.24;100101.69;5011698;28;19921;-76
2022/09/26 06:42:18;;;;;;;;;;;;;;;12.82;61.23;100104.69;5033602;28;19976;-76
2022/09/26 06:44:43;;;;;;;;;;;;;;;12.84;61.54;100097.66;5033956;28;19918;-76
2022/09/26 06:47:09;;;;;;;;;;;;;;;12.93;60.48;100094.66;5028445;28;19998;-76
2022/09/26 06:49:35;;;;;;;;;;;;;;;12.94;60.06;100096.34;5027709;28;19921;-76
2022/09/26 06:52:01;;;;;;;;;;;;;;;12.95;59.61;100091.09;5030953;28;19932;-76
2022/09/26 06:54:26;;;;;;;;;;;;;;;12.94;60.30;100089.38;5029616;28;19956;-76
2022/09/26 06:56:52;;;;;;;;;;;;;;;12.98;60.47;100080.53;5031093;28;20016;-76
2022/09/26 06:59:17;;;;;;;;;;;;;;;13.05;59.99;100076.75;5034822;28;20366;-76
2022/09/26 07:01:44;;;;;;;;;;;;;;;13.02;59.85;100073.41;5018708;28;19921;-75
2022/09/26 07:04:10;;;;;;;;;;;;;;;13.11;60.14;100066.06;5008923;28;20389;-76
2022/09/26 07:06:36;;;;;;;;;;;;;;;13.10;59.93;100058.31;5027713;28;20003;-76
2022/09/26 07:09:02;;;;;;;;;;;;;;;13.18;60.01;100061.44;5011359;28;19968;-76
2022/09/26 07:11:27;;;;;;;;;;;;;;;13.22;59.56;100047.38;5034895;28;19975;-76
2022/09/26 07:13:53;;;;;;;;;;;;;;;13.33;59.58;100045.13;5026497;28;19921;-76
2022/09/26 07:16:18;;;;;;;;;;;;;;;13.21;59.07;100046.50;5024051;28;20897;-76
2022/09/26 07:18:43;;;;;;;;;;;;;;;13.27;60.05;100049.75;5029576;28;19927;-76
2022/09/26 07:21:08;;;;;;;;;;;;;;;13.26;58.97;100046.28;5035285;28;19924;-76
2022/09/26 07:23:34;;;;;;;;;;;;;;;13.34;59.46;100043.38;5039025;28;19912;-75
2022/09/26 07:26:01;;;;;;;;;;;;;;;13.39;59.39;100044.00;5028990;28;19959;-76
2022/09/26 07:28:26;;;;;;;;;;;;;;;13.37;59.37;100031.03;5030482;28;19927;-76
2022/09/26 07:30:56;;;;;;;;;;;;;;;13.27;60.39;100037.56;5045370;28;19920;-76
2022/09/26 07:33:21;;;;;;;;;;;;;;;13.36;59.16;100031.09;5046481;28;20365;-76
2022/09/26 07:35:47;;;;;;;;;;;;;;;13.40;59.04;100024.84;5032575;28;20023;-76
2022/09/26 07:38:12;;;;;;;;;;;;;;;13.35;59.57;100030.25;5045302;28;19917;-76
2022/09/26 07:40:38;;;;;;;;;;;;;;;13.30;59.46;100020.94;5053204;28;19952;-76
2022/09/26 07:43:03;;;;;;;;;;;;;;;13.32;59.48;100022.56;5049899;28;19921;-76
2022/09/26 07:50:57;;;;;;;;;;;;;;;13.46;59.65;100022.78;5046037;28;19960;-77
2022/09/26 07:53:26;;;;;;;;;;;;;;;13.50;59.83;100018.28;5027156;28;19996;-77
2022/09/26 07:56:04;;;;;;;;;;;;;;;13.47;60.40;100021.88;5028954;28;19925;-77
2022/09/26 07:58:32;;;;;;;;;;;;;;;13.52;59.97;100019.91;5030954;28;20305;-77
2022/09/26 08:00:57;;;;;;;;;;;;;;;13.57;61.41;100012.72;5031107;28;20431;-78
2022/09/26 08:03:26;;;;;;;;;;;;;;;13.59;61.09;100013.50;5028903;28;19929;-77
2022/09/26 08:05:55;;;;;;;;;;;;;;;13.65;60.12;100005.41;5036696;28;20012;-77
2022/09/26 08:08:20;;;;;;;;;;;;;;;13.60;58.88;99996.94;5034016;28;20011;-77
2022/09/26 08:10:46;;;;;;;;;;;;;;;13.50;59.50;99994.78;5029592;28;20477;-77
2022/09/26 08:13:11;;;;;;;;;;;;;;;13.46;58.82;99996.69;5028652;28;19921;-77
2022/09/26 08:15:36;;;;;;;;;;;;;;;13.38;58.47;99998.81;5023892;28;19925;-78
2022/09/26 08:18:02;;;;;;;;;;;;;;;13.39;58.22;99987.47;5048780;28;20293;-77
2022/09/26 08:20:27;;;;;;;;;;;;;;;13.70;59.92;99993.00;5064555;28;20000;-77
2022/09/26 08:22:56;;;;;;;;;;;;;;;13.66;58.85;99990.59;5034784;28;19920;-77
2022/09/26 08:25:21;;;;;;;;;;;;;;;13.59;58.68;99992.63;5030622;28;19975;-77
2022/09/26 08:27:47;;;;;;;;;;;;;;;13.58;59.04;99992.72;5053987;28;19924;-77
2022/09/26 08:30:13;;;;;;;;;;;;;;;13.56;59.46;99991.91;5050595;28;19924;-77
2022/09/26 08:32:39;;;;;;;;;;;;;;;13.45;59.37;99989.81;5026772;28;19925;-77
2022/09/26 08:35:05;;;;;;;;;;;;;;;13.46;59.06;99994.09;5028847;28;19979;-78
2022/09/26 08:37:30;;;;;;;;;;;;;;;13.56;59.13;99989.31;5031794;28;19948;-77
2022/09/26 08:39:55;;;;;;;;;;;;;;;13.43;59.45;99988.19;5030988;28;19924;-77
2022/09/26 08:42:27;;;;;;;;;;;;;;;13.31;58.63;99991.34;5033562;28;19929;-77
2022/09/26 08:48:13;;;;;;;;;;;;;;;13.45;59.18;99986.34;5034256;28;19947;-77
2022/09/26 08:50:46;;;;;;;;;;;;;;;13.48;59.11;99981.84;5032939;28;20369;-77
2022/09/26 08:53:15;;;;;;;;;;;;;;;13.53;60.27;99986.84;5032172;28;20425;-77
2022/09/26 08:55:42;;;;;;;;;;;;;;;13.42;61.06;99981.25;5029527;28;19940;-77
2022/09/26 08:58:14;;;;;;;;;;;;;;;13.42;60.32;99987.31;5030815;28;19929;-77
2022/09/26 09:00:40;;;;;;;;;;;;;;;13.51;60.77;99988.69;5028416;28;19917;-77
2022/09/26 09:03:24;;;;;;;;;;;;;;;13.39;60.42;99982.25;5048905;28;20420;-77
2022/09/26 09:06:10;;;;;;;;;;;;;;;13.49;61.21;99986.13;5034997;28;19947;-77
2022/09/26 09:08:43;;;;;;;;;;;;;;;13.44;60.40;99979.41;5011205;28;19944;-76
2022/09/26 09:11:14;;;;;;;;;;;;;;;13.39;61.09;99984.00;5039894;28;19917;-77
2022/09/26 09:13:46;;;;;;;;;;;;;;;13.40;60.54;99981.34;5036831;28;19921;-77
2022/09/26 09:16:14;;;;;;;;;;;;;;;13.38;61.06;99990.97;5037674;28;19928;-75
2022/09/26 09:18:42;;;;;;;;;;;;;;;13.52;61.06;99982.56;5034196;28;20012;-76
2022/09/26 09:21:34;;;;;;;;;;;;;;;13.53;61.45;99985.06;5033215;28;19963;-76
2022/09/26 09:24:16;;;;;;;;;;;;;;;13.21;61.51;99990.88;5038060;28;19921;-76
2022/09/26 09:26:57;;;;;;;;;;;;;;;13.42;61.34;99991.69;5043853;28;19987;-75
2022/09/26 09:29:32;;;;;;;;;;;;;;;13.22;62.64;99985.59;5034671;28;20016;-75
2022/09/26 09:31:59;;;;;;;;;;;;;;;13.36;63.71;99979.78;5052974;28;19913;-76
2022/09/26 09:34:27;;;;;;;;;;;;;;;13.28;62.58;99983.66;5033294;28;20449;-76
2022/09/26 09:36:58;;;;;;;;;;;;;;;13.33;63.49;99989.50;5040031;28;19927;-76
2022/09/26 09:39:30;;;;;;;;;;;;;;;13.34;64.16;99979.00;5028771;28;20599;-76
2022/09/26 09:41:57;;;;;;;;;;;;;;;13.20;64.31;99973.53;5029527;28;19929;-76
2022/09/26 09:44:35;;;;;;;;;;;;;;;13.25;64.53;99976.81;5030636;28;19921;-75
2022/09/26 09:47:00;;;;;;;;;;;;;;;13.34;64.01;99973.78;5036828;28;20337;-76
2022/09/26 09:49:26;;;;;;;;;;;;;;;13.35;65.93;99969.41;5051856;28;20026;-76
2022/09/26 09:51:56;;;;;;;;;;;;;;;13.43;64.52;99967.31;5036511;28;19932;-76
2022/09/26 09:54:34;;;;;;;;;;;;;;;13.45;64.14;99960.25;5048564;28;20584;-76
2022/09/26 09:57:07;;;;;;;;;;;;;;;13.49;64.95;99954.00;5049421;28;19920;-76
2022/09/26 09:59:51;;;;;;;;;;;;;;;13.55;65.19;99945.88;5050142;28;19916;-76
2022/09/26 10:02:28;;;;;;;;;;;;;;;13.51;65.23;99937.34;5052986;28;19944;-76
2022/09/26 10:05:02;;;;;;;;;;;;;;;13.54;66.25;99929.38;5037155;28;19928;-76
2022/09/26 10:07:27;;;;;;;;;;;;;;;13.41;66.46;99928.22;5050902;28;19962;-76
2022/09/26 10:09:53;;;;;;;;;;;;;;;13.51;65.66;99920.84;5050023;28;19932;-76
2022/09/26 10:12:19;;;;;;;;;;;;;;;13.45;66.60;99923.72;5050785;28;20413;-76
2022/09/26 10:14:48;;;;;;;;;;;;;;;13.47;66.62;99927.09;5048850;28;19990;-76
2022/09/26 10:17:16;;;;;;;;;;;;;;;13.52;66.27;99922.53;5048796;28;19923;-76
2022/09/26 10:19:43;;;;;;;;;;;;;;;13.51;66.42;99919.06;5052302;28;19974;-76
2022/09/26 10:22:28;;;;;;;;;;;;;;;13.50;66.81;99911.31;5050264;28;19924;-76
2022/09/26 10:25:05;;;;;;;;;;;;;;;13.57;66.18;99912.72;5030807;28;19944;-76
2022/09/26 10:27:34;;;;;;;;;;;;;;;13.66;65.74;99912.28;5038379;28;19921;-75
2022/09/26 10:30:06;;;;;;;;;;;;;;;13.52;66.67;99912.91;5036486;28;20378;-76
2022/09/26 10:32:41;;;;;;;;;;;;;;;13.53;66.10;99906.78;5019870;28;20319;-75
2022/09/26 10:35:17;;;;;;;;;;;;;;;13.51;67.53;99902.56;5048109;28;19921;-76
2022/09/26 10:37:45;;;;;;;;;;;;;;;13.48;67.95;99900.97;5049303;28;19920;-76
2022/09/26 10:43:24;;;;;;;;;;;;;;;13.57;67.46;99892.69;5026034;28;20002;-76
2022/09/26 10:45:54;;;;;;;;;;;;;;;13.61;66.59;99883.78;5038079;28;19921;-76
2022/09/26 10:48:23;;;;;;;;;;;;;;;13.54;67.53;99890.22;5033728;28;19980;-76
2022/09/26 10:50:54;;;;;;;;;;;;;;;13.66;67.45;99881.81;5026504;28;19921;-76
2022/09/26 10:53:22;;;;;;;;;;;;;;;13.64;67.46;99875.81;5039166;28;19917;-75
2022/09/26 10:55:57;;;;;;;;;;;;;;;13.62;66.61;99872.44;5047416;28;19935;-75
2022/09/26 10:58:28;;;;;;;;;;;;;;;13.56;67.28;99872.72;5049568;28;19921;-76
2022/09/26 11:00:53;;;;;;;;;;;;;;;13.64;67.26;99862.75;5037005;28;19920;-76
2022/09/26 11:03:20;;;;;;;;;;;;;;;13.63;66.65;99858.50;5050311;28;19923;-76
2022/09/26 11:05:56;;;;;;;;;;;;;;;13.59;66.07;99850.84;5048138;28;19929;-76
2022/09/26 11:08:25;;;;;;;;;;;;;;;13.62;67.39;99855.94;5050053;28;19935;-75
2022/09/26 11:10:52;;;;;;;;;;;;;;;13.64;67.02;99849.72;5048644;28;19913;-75
2022/09/26 11:13:17;;;;;;;;;;;;;;;13.64;68.04;99848.91;5046736;28;20393;-76
2022/09/26 11:15:56;;;;;;;;;;;;;;;13.61;68.69;99842.03;5045537;28;19940;-76
2022/09/26 11:18:31;;;;;;;;;;;;;;;13.60;68.74;99831.69;5045142;28;19921;-76
2022/09/26 11:21:04;;;;;;;;;;;;;;;13.72;67.36;99825.91;5048541;28;19928;-76
2022/09/26 11:23:29;;;;;;;;;;;;;;;13.78;69.50;99817.78;5047827;28;19938;-76
2022/09/26 11:26:01;;;;;;;;;;;;;;;13.86;68.72;99814.78;5064076;28;19909;-75
2022/09/26 11:28:43;;;;;;;;;;;;;;;13.69;66.90;99797.34;5042570;28;19916;-76
2022/09/26 11:31:21;;;;;;;;;;;;;;;13.86;67.35;99791.28;5056828;28;20347;-76
2022/09/26 11:33:46;;;;;;;;;;;;;;;13.93;66.28;99784.84;5038881;28;19921;-76
2022/09/26 11:36:16;;;;;;;;;;;;;;;13.93;66.78;99779.63;5028952;28;20045;-76
2022/09/26 11:38:46;;;;;;;;;;;;;;;14.10;66.06;99782.22;5028866;28;19918;-76
2022/09/26 11:41:35;;;;;;;;;;;;;;;13.97;66.79;99775.91;5023189;28;19924;-75
2022/09/26 11:44:00;;;;;;;;;;;;;;;13.91;62.96;99766.63;5027812;28;19991;-76
2022/09/26 11:46:26;;;;;;;;;;;;;;;13.73;63.90;99775.38;5027905;28;20381;-76
2022/09/26 11:49:11;;;;;;;;;;;;;;;13.97;63.95;99766.31;5028436;28;19921;-76
2022/09/26 11:51:56;;;;;;;;;;;;;;;14.09;64.36;99759.63;5027394;28;20020;-75
2022/09/26 11:54:39;;;;;;;;;;;;;;;14.13;62.48;99750.72;5032082;28;19930;-76
2022/09/26 11:57:24;;;;;;;;;;;;;;;14.05;63.59;99747.66;5037461;28;19929;-75
2022/09/26 12:00:04;;;;;;;;;;;;;;;13.74;61.33;99733.56;5040274;28;20282;-76
2022/09/26 12:02:36;;;;;;;;;;;;;;;13.85;61.89;99738.22;5028617;28;19964;-76
2022/09/26 12:05:23;;;;;;;;;;;;;;;13.92;63.04;99731.78;5027163;28;19917;-76
2022/09/26 12:08:07;;;;;;;;;;;;;;;13.72;61.92;99724.97;5010042;28;20004;-76
2022/09/26 12:10:33;;;;;;;;;;;;;;;13.95;62.30;99708.13;5026861;28;19925;-75
2022/09/26 12:13:18;;;;;;;;;;;;;;;14.01;62.67;99710.41;5043055;28;19920;-76
2022/09/26 12:15:53;;;;;;;;;;;;;;;13.81;61.32;99705.38;5049544;28;19924;-75
2022/09/26 12:18:24;;;;;;;;;;;;;;;13.88;60.59;99703.31;5046914;28;19921;-76
2022/09/26 12:20:56;;;;;;;;;;;;;;;14.16;63.17;99686.13;5047314;28;19928;-75
2022/09/26 12:23:24;;;;;;;;;;;;;;;14.15;60.65;99679.19;5031869;28;20019;-76
2022/09/26 12:26:07;;;;;;;;;;;;;;;14.32;62.66;99676.53;5053803;28;20003;-76
2022/09/26 12:28:51;;;;;;;;;;;;;;;14.17;61.14;99669.53;5028670;28;19936;-76
2022/09/26 12:31:19;;;;;;;;;;;;;;;14.04;61.16;99658.03;5048647;28;20029;-76
2022/09/26 12:33:51;;;;;;;;;;;;;;;14.10;61.57;99664.69;5055784;28;19970;-75
2022/09/26 12:36:38;;;;;;;;;;;;;;;13.94;60.54;99651.59;5051359;28;19925;-75
2022/09/26 12:39:06;;;;;;;;;;;;;;;14.23;60.25;99648.28;5045869;28;19925;-75
2022/09/26 12:41:47;;;;;;;;;;;;;;;14.05;61.70;99654.50;5045074;28;20771;-75
2022/09/26 12:44:20;;;;;;;;;;;;;;;13.93;59.79;99654.31;5044585;28;20012;-75
2022/09/26 12:46:58;;;;;;;;;;;;;;;13.81;60.80;99655.78;5041703;28;19960;-75
2022/09/26 12:49:33;;;;;;;;;;;;;;;13.85;60.03;99654.69;5025196;28;19927;-75
2022/09/26 12:52:18;;;;;;;;;;;;;;;13.77;59.66;99652.50;5041305;28;19921;-76
2022/09/26 12:54:56;;;;;;;;;;;;;;;13.89;60.35;99661.44;5031259;28;20428;-75
2022/09/26 12:57:28;;;;;;;;;;;;;;;13.92;59.98;99657.81;5046509;28;19925;-76
2022/09/26 12:59:53;;;;;;;;;;;;;;;13.67;59.33;99663.50;5037930;28;19921;-76
2022/09/26 13:02:27;;;;;;;;;;;;;;;13.72;60.54;99657.13;5026849;28;19971;-75
2022/09/26 13:05:02;;;;;;;;;;;;;;;13.91;60.95;99667.44;5016528;28;19913;-76
2022/09/26 13:07:41;;;;;;;;;;;;;;;13.95;61.93;99662.91;5026778;28;20382;-75